sensor_id;sensor_type;location;lat;lon;timestamp;P1;durP1;ratioP1;P2;durP2;ratioP2
61907;SDS011;47864;52.526;19.672;2023-02-28T00:01:12;61.28;;;32.42;;
61907;SDS011;47864;52.526;19.672;2023-02-28T00:03:14;56.95;;;29.98;;
61907;SDS011;47864;52.526;19.672;2023-02-28T00:05:17;62.63;;;33.35;;
61907;SDS011;47864;52.526;19.672;2023-02-28T00:07:21;64.03;;;34.97;;
61907;SDS011;47864;52.526;19.672;2023-02-28T00:09:22;62.85;;;33.47;;
61907;SDS011;47864;52.526;19.672;2023-02-28T00:11:23;58.75;;;32.55;;
61907;SDS011;47864;52.526;19.672;2023-02-28T00:13:25;60.83;;;33.63;;
61907;SDS011;47864;52.526;19.672;2023-02-28T00:15:27;54.22;;;30.85;;
61907;SDS011;47864;52.526;19.672;2023-02-28T00:17:28;59.67;;;31.42;;
61907;SDS011;47864;52.526;19.672;2023-02-28T00:19:30;56.35;;;31.58;;
61907;SDS011;47864;52.526;19.672;2023-02-28T00:21:31;58.05;;;31.58;;
61907;SDS011;47864;52.526;19.672;2023-02-28T00:23:33;54.03;;;30.80;;
61907;SDS011;47864;52.526;19.672;2023-02-28T00:25:35;65.93;;;34.33;;
61907;SDS011;47864;52.526;19.672;2023-02-28T00:27:37;60.53;;;32.15;;
61907;SDS011;47864;52.526;19.672;2023-02-28T00:29:39;69.68;;;35.92;;
61907;SDS011;47864;52.526;19.672;2023-02-28T00:31:41;66.88;;;34.47;;
61907;SDS011;47864;52.526;19.672;2023-02-28T00:33:42;72.95;;;37.10;;
61907;SDS011;47864;52.526;19.672;2023-02-28T00:35:44;72.50;;;34.67;;
61907;SDS011;47864;52.526;19.672;2023-02-28T00:37:49;59.33;;;33.40;;
61907;SDS011;47864;52.526;19.672;2023-02-28T00:39:51;59.25;;;32.58;;
61907;SDS011;47864;52.526;19.672;2023-02-28T00:41:52;62.67;;;33.28;;
61907;SDS011;47864;52.526;19.672;2023-02-28T00:43:54;68.80;;;34.58;;
61907;SDS011;47864;52.526;19.672;2023-02-28T00:45:55;62.47;;;33.28;;
61907;SDS011;47864;52.526;19.672;2023-02-28T00:47:57;61.95;;;33.50;;
61907;SDS011;47864;52.526;19.672;2023-02-28T00:49:59;68.25;;;33.55;;
61907;SDS011;47864;52.526;19.672;2023-02-28T00:52:01;56.85;;;33.78;;
61907;SDS011;47864;52.526;19.672;2023-02-28T00:54:03;63.25;;;30.95;;
61907;SDS011;47864;52.526;19.672;2023-02-28T00:56:04;67.20;;;33.92;;
61907;SDS011;47864;52.526;19.672;2023-02-28T00:58:06;62.35;;;33.38;;
61907;SDS011;47864;52.526;19.672;2023-02-28T01:00:08;67.57;;;33.85;;
61907;SDS011;47864;52.526;19.672;2023-02-28T01:02:10;73.88;;;34.05;;
61907;SDS011;47864;52.526;19.672;2023-02-28T01:04:11;66.78;;;33.38;;
61907;SDS011;47864;52.526;19.672;2023-02-28T01:06:13;69.13;;;34.60;;
61907;SDS011;47864;52.526;19.672;2023-02-28T01:08:15;76.75;;;36.92;;
61907;SDS011;47864;52.526;19.672;2023-02-28T01:10:17;76.05;;;38.65;;
61907;SDS011;47864;52.526;19.672;2023-02-28T01:12:18;77.28;;;37.78;;
61907;SDS011;47864;52.526;19.672;2023-02-28T01:14:20;75.43;;;38.00;;
61907;SDS011;47864;52.526;19.672;2023-02-28T01:16:22;75.97;;;39.05;;
61907;SDS011;47864;52.526;19.672;2023-02-28T01:18:23;72.88;;;36.70;;
61907;SDS011;47864;52.526;19.672;2023-02-28T01:20:25;71.90;;;35.42;;
61907;SDS011;47864;52.526;19.672;2023-02-28T01:22:27;64.75;;;34.60;;
61907;SDS011;47864;52.526;19.672;2023-02-28T01:24:28;67.50;;;35.90;;
61907;SDS011;47864;52.526;19.672;2023-02-28T01:26:30;71.97;;;35.35;;
61907;SDS011;47864;52.526;19.672;2023-02-28T01:28:32;73.50;;;35.95;;
61907;SDS011;47864;52.526;19.672;2023-02-28T01:30:34;68.70;;;34.97;;
61907;SDS011;47864;52.526;19.672;2023-02-28T01:32:36;69.25;;;34.83;;
61907;SDS011;47864;52.526;19.672;2023-02-28T01:34:38;69.57;;;35.38;;
61907;SDS011;47864;52.526;19.672;2023-02-28T01:36:39;67.80;;;35.50;;
61907;SDS011;47864;52.526;19.672;2023-02-28T01:38:41;66.68;;;35.38;;
61907;SDS011;47864;52.526;19.672;2023-02-28T01:40:43;71.13;;;36.15;;
61907;SDS011;47864;52.526;19.672;2023-02-28T01:42:44;65.95;;;33.08;;
61907;SDS011;47864;52.526;19.672;2023-02-28T01:45:03;66.47;;;35.38;;
61907;SDS011;47864;52.526;19.672;2023-02-28T01:47:14;65.03;;;35.40;;
61907;SDS011;47864;52.526;19.672;2023-02-28T01:49:16;67.88;;;34.92;;
61907;SDS011;47864;52.526;19.672;2023-02-28T01:51:21;62.60;;;32.75;;
61907;SDS011;47864;52.526;19.672;2023-02-28T01:53:45;62.60;;;32.67;;
61907;SDS011;47864;52.526;19.672;2023-02-28T01:55:49;64.75;;;33.08;;
61907;SDS011;47864;52.526;19.672;2023-02-28T01:57:54;71.05;;;35.65;;
61907;SDS011;47864;52.526;19.672;2023-02-28T01:59:58;75.60;;;36.42;;
61907;SDS011;47864;52.526;19.672;2023-02-28T02:02:03;141.23;;;53.17;;
61907;SDS011;47864;52.526;19.672;2023-02-28T02:04:05;79.25;;;38.95;;
61907;SDS011;47864;52.526;19.672;2023-02-28T02:06:06;63.00;;;32.28;;
61907;SDS011;47864;52.526;19.672;2023-02-28T02:08:09;56.97;;;30.48;;
61907;SDS011;47864;52.526;19.672;2023-02-28T02:10:15;64.90;;;32.85;;
61907;SDS011;47864;52.526;19.672;2023-02-28T02:12:27;63.17;;;31.70;;
61907;SDS011;47864;52.526;19.672;2023-02-28T02:14:41;59.70;;;30.23;;
61907;SDS011;47864;52.526;19.672;2023-02-28T02:16:59;110.32;;;41.47;;
61907;SDS011;47864;52.526;19.672;2023-02-28T02:19:15;145.25;;;48.55;;
61907;SDS011;47864;52.526;19.672;2023-02-28T02:24:03;97.28;;;37.28;;
61907;SDS011;47864;52.526;19.672;2023-02-28T02:31:20;51.55;;;26.27;;
61907;SDS011;47864;52.526;19.672;2023-02-28T02:35:58;46.58;;;25.95;;
61907;SDS011;47864;52.526;19.672;2023-02-28T02:40:23;50.95;;;26.55;;
61907;SDS011;47864;52.526;19.672;2023-02-28T02:42:50;45.83;;;25.63;;
61907;SDS011;47864;52.526;19.672;2023-02-28T02:44:56;49.58;;;26.25;;
61907;SDS011;47864;52.526;19.672;2023-02-28T02:47:09;49.03;;;25.35;;
61907;SDS011;47864;52.526;19.672;2023-02-28T02:49:24;43.47;;;23.65;;
61907;SDS011;47864;52.526;19.672;2023-02-28T02:51:31;74.30;;;40.70;;
61907;SDS011;47864;52.526;19.672;2023-02-28T02:53:35;51.17;;;25.00;;
61907;SDS011;47864;52.526;19.672;2023-02-28T02:55:43;50.63;;;25.50;;
61907;SDS011;47864;52.526;19.672;2023-02-28T02:57:50;52.15;;;26.70;;
61907;SDS011;47864;52.526;19.672;2023-02-28T02:59:55;52.80;;;26.10;;
61907;SDS011;47864;52.526;19.672;2023-02-28T03:04:05;44.72;;;24.13;;
61907;SDS011;47864;52.526;19.672;2023-02-28T03:06:11;70.55;;;32.05;;
61907;SDS011;47864;52.526;19.672;2023-02-28T03:08:14;71.93;;;32.53;;
61907;SDS011;47864;52.526;19.672;2023-02-28T03:12:38;80.30;;;35.55;;
61907;SDS011;47864;52.526;19.672;2023-02-28T03:20:04;106.80;;;41.60;;
61907;SDS011;47864;52.526;19.672;2023-02-28T03:25:00;69.40;;;33.50;;
61907;SDS011;47864;52.526;19.672;2023-02-28T03:29:39;54.45;;;28.80;;
61907;SDS011;47864;52.526;19.672;2023-02-28T03:31:49;62.92;;;31.30;;
61907;SDS011;47864;52.526;19.672;2023-02-28T03:33:59;54.13;;;27.77;;
61907;SDS011;47864;52.526;19.672;2023-02-28T03:36:49;71.53;;;35.92;;
61907;SDS011;47864;52.526;19.672;2023-02-28T03:38:35;72.78;;;38.05;;
61907;SDS011;47864;52.526;19.672;2023-02-28T03:40:47;80.43;;;40.85;;
61907;SDS011;47864;52.526;19.672;2023-02-28T03:42:53;97.15;;;43.65;;
61907;SDS011;47864;52.526;19.672;2023-02-28T03:45:00;96.85;;;46.45;;
61907;SDS011;47864;52.526;19.672;2023-02-28T03:47:08;89.25;;;41.63;;
61907;SDS011;47864;52.526;19.672;2023-02-28T03:49:14;76.18;;;35.60;;
61907;SDS011;47864;52.526;19.672;2023-02-28T03:51:20;71.80;;;35.75;;
61907;SDS011;47864;52.526;19.672;2023-02-28T03:53:27;73.70;;;36.63;;
61907;SDS011;47864;52.526;19.672;2023-02-28T03:55:34;71.35;;;33.72;;
61907;SDS011;47864;52.526;19.672;2023-02-28T03:57:45;66.80;;;33.25;;
61907;SDS011;47864;52.526;19.672;2023-02-28T03:59:56;68.20;;;33.15;;
61907;SDS011;47864;52.526;19.672;2023-02-28T04:02:00;71.30;;;34.63;;
61907;SDS011;47864;52.526;19.672;2023-02-28T04:04:02;72.93;;;36.65;;
61907;SDS011;47864;52.526;19.672;2023-02-28T04:06:13;65.57;;;34.17;;
61907;SDS011;47864;52.526;19.672;2023-02-28T04:08:17;68.05;;;35.40;;
61907;SDS011;47864;52.526;19.672;2023-02-28T04:10:19;70.32;;;34.10;;
61907;SDS011;47864;52.526;19.672;2023-02-28T04:12:21;68.85;;;35.58;;
61907;SDS011;47864;52.526;19.672;2023-02-28T04:14:22;70.38;;;35.55;;
61907;SDS011;47864;52.526;19.672;2023-02-28T04:16:24;58.63;;;31.35;;
61907;SDS011;47864;52.526;19.672;2023-02-28T04:18:35;59.67;;;31.85;;
61907;SDS011;47864;52.526;19.672;2023-02-28T04:20:37;70.85;;;32.33;;
61907;SDS011;47864;52.526;19.672;2023-02-28T04:22:38;62.60;;;33.78;;
61907;SDS011;47864;52.526;19.672;2023-02-28T04:24:40;69.85;;;34.65;;
61907;SDS011;47864;52.526;19.672;2023-02-28T04:26:42;68.70;;;35.50;;
61907;SDS011;47864;52.526;19.672;2023-02-28T04:28:48;69.88;;;32.70;;
61907;SDS011;47864;52.526;19.672;2023-02-28T04:30:56;79.82;;;36.60;;
61907;SDS011;47864;52.526;19.672;2023-02-28T04:33:00;71.53;;;34.65;;
61907;SDS011;47864;52.526;19.672;2023-02-28T04:35:02;62.90;;;32.40;;
61907;SDS011;47864;52.526;19.672;2023-02-28T04:37:04;70.82;;;34.25;;
61907;SDS011;47864;52.526;19.672;2023-02-28T04:39:14;68.68;;;33.20;;
61907;SDS011;47864;52.526;19.672;2023-02-28T04:41:16;77.32;;;34.50;;
61907;SDS011;47864;52.526;19.672;2023-02-28T04:43:18;79.60;;;34.08;;
61907;SDS011;47864;52.526;19.672;2023-02-28T04:45:19;69.07;;;33.83;;
61907;SDS011;47864;52.526;19.672;2023-02-28T04:47:21;75.65;;;34.45;;
61907;SDS011;47864;52.526;19.672;2023-02-28T04:49:22;207.13;;;67.45;;
61907;SDS011;47864;52.526;19.672;2023-02-28T04:51:24;71.55;;;34.85;;
61907;SDS011;47864;52.526;19.672;2023-02-28T04:53:25;259.90;;;85.78;;
61907;SDS011;47864;52.526;19.672;2023-02-28T04:55:26;137.55;;;51.15;;
61907;SDS011;47864;52.526;19.672;2023-02-28T04:57:28;188.10;;;69.22;;
61907;SDS011;47864;52.526;19.672;2023-02-28T04:59:29;352.95;;;91.38;;
61907;SDS011;47864;52.526;19.672;2023-02-28T05:01:32;268.05;;;81.93;;
61907;SDS011;47864;52.526;19.672;2023-02-28T05:05:35;86.45;;;38.05;;
61907;SDS011;47864;52.526;19.672;2023-02-28T05:07:37;79.47;;;38.22;;
61907;SDS011;47864;52.526;19.672;2023-02-28T05:09:38;89.10;;;42.42;;
61907;SDS011;47864;52.526;19.672;2023-02-28T05:11:40;106.75;;;43.65;;
61907;SDS011;47864;52.526;19.672;2023-02-28T05:13:42;84.90;;;40.20;;
61907;SDS011;47864;52.526;19.672;2023-02-28T05:15:43;82.57;;;37.78;;
61907;SDS011;47864;52.526;19.672;2023-02-28T05:17:44;85.70;;;39.80;;
61907;SDS011;47864;52.526;19.672;2023-02-28T05:19:46;146.75;;;53.30;;
61907;SDS011;47864;52.526;19.672;2023-02-28T05:21:49;227.07;;;70.28;;
61907;SDS011;47864;52.526;19.672;2023-02-28T05:23:53;123.63;;;48.35;;
61907;SDS011;47864;52.526;19.672;2023-02-28T05:25:55;91.83;;;38.67;;
61907;SDS011;47864;52.526;19.672;2023-02-28T05:27:57;86.15;;;41.60;;
61907;SDS011;47864;52.526;19.672;2023-02-28T05:29:59;90.30;;;39.80;;
61907;SDS011;47864;52.526;19.672;2023-02-28T05:32:00;77.00;;;37.22;;
61907;SDS011;47864;52.526;19.672;2023-02-28T05:34:02;71.53;;;34.95;;
61907;SDS011;47864;52.526;19.672;2023-02-28T05:36:03;121.57;;;51.30;;
61907;SDS011;47864;52.526;19.672;2023-02-28T05:38:06;200.95;;;74.55;;
61907;SDS011;47864;52.526;19.672;2023-02-28T05:40:08;144.50;;;58.58;;
61907;SDS011;47864;52.526;19.672;2023-02-28T05:42:10;153.18;;;57.45;;
61907;SDS011;47864;52.526;19.672;2023-02-28T05:44:11;230.73;;;78.28;;
61907;SDS011;47864;52.526;19.672;2023-02-28T05:46:13;226.80;;;79.55;;
61907;SDS011;47864;52.526;19.672;2023-02-28T05:48:15;103.03;;;45.53;;
61907;SDS011;47864;52.526;19.672;2023-02-28T05:50:16;96.15;;;43.17;;
61907;SDS011;47864;52.526;19.672;2023-02-28T05:52:18;95.00;;;44.92;;
61907;SDS011;47864;52.526;19.672;2023-02-28T05:54:19;123.82;;;51.55;;
61907;SDS011;47864;52.526;19.672;2023-02-28T05:56:21;153.38;;;62.25;;
61907;SDS011;47864;52.526;19.672;2023-02-28T05:58:22;133.68;;;55.65;;
61907;SDS011;47864;52.526;19.672;2023-02-28T06:00:24;249.93;;;99.10;;
61907;SDS011;47864;52.526;19.672;2023-02-28T06:02:25;129.68;;;55.38;;
61907;SDS011;47864;52.526;19.672;2023-02-28T06:04:27;134.20;;;58.88;;
61907;SDS011;47864;52.526;19.672;2023-02-28T06:06:32;174.98;;;72.68;;
61907;SDS011;47864;52.526;19.672;2023-02-28T06:08:37;180.38;;;76.47;;
61907;SDS011;47864;52.526;19.672;2023-02-28T06:10:38;227.10;;;97.43;;
61907;SDS011;47864;52.526;19.672;2023-02-28T06:12:40;164.95;;;78.93;;
61907;SDS011;47864;52.526;19.672;2023-02-28T06:14:41;157.27;;;77.00;;
61907;SDS011;47864;52.526;19.672;2023-02-28T06:16:43;160.35;;;80.88;;
61907;SDS011;47864;52.526;19.672;2023-02-28T06:18:44;153.80;;;83.07;;
61907;SDS011;47864;52.526;19.672;2023-02-28T06:20:52;106.10;;;58.60;;
61907;SDS011;47864;52.526;19.672;2023-02-28T06:22:57;132.80;;;69.38;;
61907;SDS011;47864;52.526;19.672;2023-02-28T06:24:59;135.90;;;68.78;;
61907;SDS011;47864;52.526;19.672;2023-02-28T06:27:00;125.35;;;69.38;;
61907;SDS011;47864;52.526;19.672;2023-02-28T06:29:02;117.18;;;63.10;;
61907;SDS011;47864;52.526;19.672;2023-02-28T06:31:11;112.05;;;61.70;;
61907;SDS011;47864;52.526;19.672;2023-02-28T06:33:14;103.13;;;61.60;;
61907;SDS011;47864;52.526;19.672;2023-02-28T06:35:15;111.90;;;65.20;;
61907;SDS011;47864;52.526;19.672;2023-02-28T06:37:17;84.80;;;46.97;;
61907;SDS011;47864;52.526;19.672;2023-02-28T06:39:19;97.85;;;53.83;;
61907;SDS011;47864;52.526;19.672;2023-02-28T06:41:24;135.52;;;77.35;;
61907;SDS011;47864;52.526;19.672;2023-02-28T06:43:28;126.28;;;68.28;;
61907;SDS011;47864;52.526;19.672;2023-02-28T06:45:31;119.10;;;63.10;;
61907;SDS011;47864;52.526;19.672;2023-02-28T06:47:33;114.00;;;64.47;;
61907;SDS011;47864;52.526;19.672;2023-02-28T06:49:34;118.15;;;67.00;;
61907;SDS011;47864;52.526;19.672;2023-02-28T06:51:37;101.90;;;59.13;;
61907;SDS011;47864;52.526;19.672;2023-02-28T06:53:41;110.43;;;66.30;;
61907;SDS011;47864;52.526;19.672;2023-02-28T06:55:43;100.75;;;56.03;;
61907;SDS011;47864;52.526;19.672;2023-02-28T06:57:44;100.47;;;52.20;;
61907;SDS011;47864;52.526;19.672;2023-02-28T06:59:46;103.60;;;51.33;;
61907;SDS011;47864;52.526;19.672;2023-02-28T07:01:47;103.55;;;46.08;;
61907;SDS011;47864;52.526;19.672;2023-02-28T07:03:49;103.63;;;43.50;;
61907;SDS011;47864;52.526;19.672;2023-02-28T07:05:51;108.30;;;49.53;;
61907;SDS011;47864;52.526;19.672;2023-02-28T07:07:52;96.32;;;44.85;;
61907;SDS011;47864;52.526;19.672;2023-02-28T07:09:54;95.70;;;42.90;;
61907;SDS011;47864;52.526;19.672;2023-02-28T07:11:55;92.97;;;44.80;;
61907;SDS011;47864;52.526;19.672;2023-02-28T07:13:57;95.25;;;47.90;;
61907;SDS011;47864;52.526;19.672;2023-02-28T07:16:03;104.60;;;53.33;;
61907;SDS011;47864;52.526;19.672;2023-02-28T07:18:06;98.50;;;51.25;;
61907;SDS011;47864;52.526;19.672;2023-02-28T07:20:08;108.60;;;51.70;;
61907;SDS011;47864;52.526;19.672;2023-02-28T07:22:09;97.13;;;49.83;;
61907;SDS011;47864;52.526;19.672;2023-02-28T07:24:11;95.60;;;49.53;;
61907;SDS011;47864;52.526;19.672;2023-02-28T07:26:13;98.07;;;48.60;;
61907;SDS011;47864;52.526;19.672;2023-02-28T07:28:17;93.78;;;45.95;;
61907;SDS011;47864;52.526;19.672;2023-02-28T07:30:18;112.53;;;55.30;;
61907;SDS011;47864;52.526;19.672;2023-02-28T07:32:20;93.43;;;50.10;;
61907;SDS011;47864;52.526;19.672;2023-02-28T07:34:22;80.50;;;41.30;;
61907;SDS011;47864;52.526;19.672;2023-02-28T07:36:24;75.95;;;41.30;;
61907;SDS011;47864;52.526;19.672;2023-02-28T07:38:25;83.88;;;47.58;;
61907;SDS011;47864;52.526;19.672;2023-02-28T07:40:27;80.13;;;44.40;;
61907;SDS011;47864;52.526;19.672;2023-02-28T07:42:28;76.07;;;41.00;;
61907;SDS011;47864;52.526;19.672;2023-02-28T07:44:30;85.75;;;48.25;;
61907;SDS011;47864;52.526;19.672;2023-02-28T07:46:32;93.30;;;48.00;;
61907;SDS011;47864;52.526;19.672;2023-02-28T07:48:34;99.38;;;57.65;;
61907;SDS011;47864;52.526;19.672;2023-02-28T07:50:35;80.30;;;45.55;;
61907;SDS011;47864;52.526;19.672;2023-02-28T07:52:37;63.90;;;35.33;;
61907;SDS011;47864;52.526;19.672;2023-02-28T07:54:39;67.00;;;37.00;;
61907;SDS011;47864;52.526;19.672;2023-02-28T07:56:41;67.15;;;35.80;;
61907;SDS011;47864;52.526;19.672;2023-02-28T07:58:42;80.13;;;38.03;;
61907;SDS011;47864;52.526;19.672;2023-02-28T08:00:43;61.72;;;30.90;;
61907;SDS011;47864;52.526;19.672;2023-02-28T08:02:45;54.45;;;27.67;;
61907;SDS011;47864;52.526;19.672;2023-02-28T08:04:47;43.30;;;24.35;;
61907;SDS011;47864;52.526;19.672;2023-02-28T08:06:48;48.08;;;25.08;;
61907;SDS011;47864;52.526;19.672;2023-02-28T08:08:50;41.80;;;23.17;;
61907;SDS011;47864;52.526;19.672;2023-02-28T08:10:51;41.70;;;21.33;;
61907;SDS011;47864;52.526;19.672;2023-02-28T08:12:53;44.83;;;23.17;;
61907;SDS011;47864;52.526;19.672;2023-02-28T08:14:54;40.97;;;20.58;;
61907;SDS011;47864;52.526;19.672;2023-02-28T08:16:56;40.28;;;20.75;;
61907;SDS011;47864;52.526;19.672;2023-02-28T08:18:57;37.78;;;20.05;;
61907;SDS011;47864;52.526;19.672;2023-02-28T08:20:59;39.22;;;18.88;;
61907;SDS011;47864;52.526;19.672;2023-02-28T08:23:00;28.60;;;17.15;;
61907;SDS011;47864;52.526;19.672;2023-02-28T08:25:02;33.13;;;17.80;;
61907;SDS011;47864;52.526;19.672;2023-02-28T08:27:04;29.20;;;15.52;;
61907;SDS011;47864;52.526;19.672;2023-02-28T08:29:05;36.25;;;19.50;;
61907;SDS011;47864;52.526;19.672;2023-02-28T08:31:08;32.25;;;18.23;;
61907;SDS011;47864;52.526;19.672;2023-02-28T08:33:11;27.88;;;16.55;;
61907;SDS011;47864;52.526;19.672;2023-02-28T08:35:12;34.78;;;17.80;;
61907;SDS011;47864;52.526;19.672;2023-02-28T08:37:14;35.28;;;19.85;;
61907;SDS011;47864;52.526;19.672;2023-02-28T08:39:16;34.17;;;20.08;;
61907;SDS011;47864;52.526;19.672;2023-02-28T08:41:17;36.28;;;20.85;;
61907;SDS011;47864;52.526;19.672;2023-02-28T08:43:19;39.40;;;21.10;;
61907;SDS011;47864;52.526;19.672;2023-02-28T08:45:20;38.90;;;21.70;;
61907;SDS011;47864;52.526;19.672;2023-02-28T08:47:22;32.08;;;17.13;;
61907;SDS011;47864;52.526;19.672;2023-02-28T08:49:23;32.08;;;17.58;;
61907;SDS011;47864;52.526;19.672;2023-02-28T08:51:25;31.65;;;17.33;;
61907;SDS011;47864;52.526;19.672;2023-02-28T08:53:27;44.00;;;22.10;;
61907;SDS011;47864;52.526;19.672;2023-02-28T08:55:30;33.78;;;18.63;;
61907;SDS011;47864;52.526;19.672;2023-02-28T08:57:31;32.53;;;16.52;;
61907;SDS011;47864;52.526;19.672;2023-02-28T08:59:33;30.67;;;17.05;;
61907;SDS011;47864;52.526;19.672;2023-02-28T09:01:36;39.00;;;19.40;;
61907;SDS011;47864;52.526;19.672;2023-02-28T09:03:37;31.13;;;17.25;;
61907;SDS011;47864;52.526;19.672;2023-02-28T09:05:39;28.02;;;15.98;;
61907;SDS011;47864;52.526;19.672;2023-02-28T09:07:41;28.10;;;14.88;;
61907;SDS011;47864;52.526;19.672;2023-02-28T09:09:42;27.67;;;14.88;;
61907;SDS011;47864;52.526;19.672;2023-02-28T09:11:44;23.92;;;13.98;;
61907;SDS011;47864;52.526;19.672;2023-02-28T09:13:45;28.70;;;14.63;;
61907;SDS011;47864;52.526;19.672;2023-02-28T09:15:47;20.98;;;13.77;;
61907;SDS011;47864;52.526;19.672;2023-02-28T09:17:49;24.65;;;14.30;;
61907;SDS011;47864;52.526;19.672;2023-02-28T09:19:50;31.65;;;16.52;;
61907;SDS011;47864;52.526;19.672;2023-02-28T09:21:52;27.67;;;15.60;;
61907;SDS011;47864;52.526;19.672;2023-02-28T09:23:55;25.48;;;14.13;;
61907;SDS011;47864;52.526;19.672;2023-02-28T09:25:56;38.75;;;15.05;;
61907;SDS011;47864;52.526;19.672;2023-02-28T09:27:58;30.17;;;15.90;;
61907;SDS011;47864;52.526;19.672;2023-02-28T09:29:59;28.98;;;16.45;;
61907;SDS011;47864;52.526;19.672;2023-02-28T09:32:01;34.85;;;17.40;;
61907;SDS011;47864;52.526;19.672;2023-02-28T09:34:03;29.25;;;17.33;;
61907;SDS011;47864;52.526;19.672;2023-02-28T09:36:05;29.83;;;17.08;;
61907;SDS011;47864;52.526;19.672;2023-02-28T09:38:07;35.65;;;17.65;;
61907;SDS011;47864;52.526;19.672;2023-02-28T09:40:10;31.70;;;18.40;;
61907;SDS011;47864;52.526;19.672;2023-02-28T09:42:17;30.95;;;18.77;;
61907;SDS011;47864;52.526;19.672;2023-02-28T09:44:26;27.95;;;18.08;;
61907;SDS011;47864;52.526;19.672;2023-02-28T09:46:33;28.13;;;19.30;;
61907;SDS011;47864;52.526;19.672;2023-02-28T09:48:39;34.17;;;19.83;;
61907;SDS011;47864;52.526;19.672;2023-02-28T09:50:55;30.90;;;18.48;;
61907;SDS011;47864;52.526;19.672;2023-02-28T09:53:05;28.63;;;16.88;;
61907;SDS011;47864;52.526;19.672;2023-02-28T09:55:42;29.75;;;18.27;;
61907;SDS011;47864;52.526;19.672;2023-02-28T09:57:49;36.92;;;20.15;;
61907;SDS011;47864;52.526;19.672;2023-02-28T10:00:13;35.10;;;21.60;;
61907;SDS011;47864;52.526;19.672;2023-02-28T10:04:59;30.98;;;21.08;;
61907;SDS011;47864;52.526;19.672;2023-02-28T10:07:18;31.92;;;20.00;;
61907;SDS011;47864;52.526;19.672;2023-02-28T10:09:38;32.13;;;19.85;;
61907;SDS011;47864;52.526;19.672;2023-02-28T10:11:40;30.67;;;20.33;;
61907;SDS011;47864;52.526;19.672;2023-02-28T10:14:04;36.08;;;20.42;;
61907;SDS011;47864;52.526;19.672;2023-02-28T10:16:08;30.95;;;18.20;;
61907;SDS011;47864;52.526;19.672;2023-02-28T10:18:15;31.95;;;19.45;;
61907;SDS011;47864;52.526;19.672;2023-02-28T10:20:20;32.83;;;19.70;;
61907;SDS011;47864;52.526;19.672;2023-02-28T10:22:25;29.67;;;18.70;;
61907;SDS011;47864;52.526;19.672;2023-02-28T10:24:38;31.48;;;19.13;;
61907;SDS011;47864;52.526;19.672;2023-02-28T10:26:43;30.95;;;18.40;;
61907;SDS011;47864;52.526;19.672;2023-02-28T10:28:46;31.77;;;17.55;;
61907;SDS011;47864;52.526;19.672;2023-02-28T10:30:49;33.03;;;17.95;;
61907;SDS011;47864;52.526;19.672;2023-02-28T10:32:53;30.42;;;17.08;;
61907;SDS011;47864;52.526;19.672;2023-02-28T10:34:57;28.38;;;16.83;;
61907;SDS011;47864;52.526;19.672;2023-02-28T10:37:01;29.98;;;17.38;;
61907;SDS011;47864;52.526;19.672;2023-02-28T10:39:33;30.70;;;17.55;;
61907;SDS011;47864;52.526;19.672;2023-02-28T10:41:57;30.25;;;17.65;;
61907;SDS011;47864;52.526;19.672;2023-02-28T10:44:17;39.75;;;19.80;;
61907;SDS011;47864;52.526;19.672;2023-02-28T10:46:21;30.60;;;17.45;;
61907;SDS011;47864;52.526;19.672;2023-02-28T10:48:30;29.02;;;17.25;;
61907;SDS011;47864;52.526;19.672;2023-02-28T10:50:45;37.78;;;20.80;;
61907;SDS011;47864;52.526;19.672;2023-02-28T10:52:53;31.08;;;18.48;;
61907;SDS011;47864;52.526;19.672;2023-02-28T10:54:56;48.47;;;24.63;;
61907;SDS011;47864;52.526;19.672;2023-02-28T10:57:18;37.10;;;20.88;;
61907;SDS011;47864;52.526;19.672;2023-02-28T10:59:25;38.33;;;21.02;;
61907;SDS011;47864;52.526;19.672;2023-02-28T11:04:00;29.23;;;16.75;;
61907;SDS011;47864;52.526;19.672;2023-02-28T11:06:18;31.17;;;16.85;;
61907;SDS011;47864;52.526;19.672;2023-02-28T11:08:22;26.75;;;17.10;;
61907;SDS011;47864;52.526;19.672;2023-02-28T11:10:25;31.55;;;17.02;;
61907;SDS011;47864;52.526;19.672;2023-02-28T11:12:34;23.27;;;15.35;;
61907;SDS011;47864;52.526;19.672;2023-02-28T11:14:53;24.00;;;14.90;;
61907;SDS011;47864;52.526;19.672;2023-02-28T11:17:10;31.83;;;16.73;;
61907;SDS011;47864;52.526;19.672;2023-02-28T11:19:19;51.97;;;24.55;;
61907;SDS011;47864;52.526;19.672;2023-02-28T11:21:33;24.02;;;14.13;;
61907;SDS011;47864;52.526;19.672;2023-02-28T11:23:36;24.05;;;14.10;;
61907;SDS011;47864;52.526;19.672;2023-02-28T11:25:46;29.15;;;14.55;;
61907;SDS011;47864;52.526;19.672;2023-02-28T11:27:51;25.73;;;14.93;;
61907;SDS011;47864;52.526;19.672;2023-02-28T11:29:58;27.60;;;15.10;;
61907;SDS011;47864;52.526;19.672;2023-02-28T11:32:18;36.08;;;16.33;;
61907;SDS011;47864;52.526;19.672;2023-02-28T11:34:26;35.58;;;17.88;;
61907;SDS011;47864;52.526;19.672;2023-02-28T11:36:29;26.52;;;15.60;;
61907;SDS011;47864;52.526;19.672;2023-02-28T11:38:32;39.75;;;24.33;;
61907;SDS011;47864;52.526;19.672;2023-02-28T11:45:42;29.20;;;15.50;;
61907;SDS011;47864;52.526;19.672;2023-02-28T11:47:53;27.88;;;14.52;;
61907;SDS011;47864;52.526;19.672;2023-02-28T11:52:52;27.70;;;15.43;;
61907;SDS011;47864;52.526;19.672;2023-02-28T11:55:01;29.67;;;18.05;;
61907;SDS011;47864;52.526;19.672;2023-02-28T11:57:11;28.92;;;17.55;;
61907;SDS011;47864;52.526;19.672;2023-02-28T12:06:14;25.20;;;14.85;;
61907;SDS011;47864;52.526;19.672;2023-02-28T12:11:00;31.55;;;15.80;;
61907;SDS011;47864;52.526;19.672;2023-02-28T12:22:16;23.13;;;14.48;;
61907;SDS011;47864;52.526;19.672;2023-02-28T12:26:55;18.45;;;13.13;;
61907;SDS011;47864;52.526;19.672;2023-02-28T12:29:04;32.17;;;15.30;;
61907;SDS011;47864;52.526;19.672;2023-02-28T12:31:16;21.42;;;13.45;;
61907;SDS011;47864;52.526;19.672;2023-02-28T12:33:22;28.90;;;14.90;;
61907;SDS011;47864;52.526;19.672;2023-02-28T12:35:34;24.48;;;14.52;;
61907;SDS011;47864;52.526;19.672;2023-02-28T12:37:45;23.50;;;11.77;;
61907;SDS011;47864;52.526;19.672;2023-02-28T12:39:53;19.05;;;12.18;;
61907;SDS011;47864;52.526;19.672;2023-02-28T12:42:01;23.92;;;12.60;;
61907;SDS011;47864;52.526;19.672;2023-02-28T12:46:34;21.55;;;12.93;;
61907;SDS011;47864;52.526;19.672;2023-02-28T12:48:48;21.00;;;12.32;;
61907;SDS011;47864;52.526;19.672;2023-02-28T12:50:56;21.42;;;12.65;;
61907;SDS011;47864;52.526;19.672;2023-02-28T12:53:00;18.50;;;9.82;;
61907;SDS011;47864;52.526;19.672;2023-02-28T12:57:36;20.10;;;11.77;;
61907;SDS011;47864;52.526;19.672;2023-02-28T12:59:57;25.77;;;12.60;;
61907;SDS011;47864;52.526;19.672;2023-02-28T13:06:52;21.98;;;10.20;;
61907;SDS011;47864;52.526;19.672;2023-02-28T13:09:01;17.00;;;10.80;;
61907;SDS011;47864;52.526;19.672;2023-02-28T13:11:05;18.50;;;10.63;;